Pettus, Arkansas
Current Conditions -  °F | °C
As of 7:58 AM on Saturday 25 Oct 2014 (Local Time) from KLRF Reporting Station
Clear Clear  
Wind Chill: 52°   Ceiling: Unl
Heat Index: 52°   Visibility: 10mi
Dew Point: 50°   Wind: 0mph
Humidity: 94%   Direction: NA
Pressure: 30.1"   Gusts: NA
Location:  34.7557°N, 91.9476°W
Report Text: KLRF 251258Z AUTO 00000KT 10SM CLR 11/10 A3010 RMK AO2 SLP195 T01120102
Loading
Personal Weather Stations






























Interactive Weather Map
Tropical Storm Tracking
New forecast layout! Learn more

10-Day Weather Forecast

Advertisements
Track Severe Weather on mobile